createdAt,value
2019-05-01T00:01:10.745Z,13.40
2019-05-01T00:03:50.131Z,13.60
2019-05-01T00:06:21.856Z,13.60
2019-05-01T00:08:49.775Z,13.20
2019-05-01T00:11:17.759Z,13.20
2019-05-01T00:13:45.812Z,13.20
2019-05-01T00:16:14.101Z,13.20
2019-05-01T00:18:42.022Z,13.40
2019-05-01T00:21:10.134Z,13.40
2019-05-01T00:23:38.135Z,13.00
2019-05-01T00:26:09.066Z,12.90
2019-05-01T00:28:36.941Z,13.10
2019-05-01T00:31:04.923Z,13.00
2019-05-01T00:33:32.842Z,13.00
2019-05-01T00:36:00.801Z,12.80
2019-05-01T00:38:32.629Z,12.80
2019-05-01T00:41:00.534Z,12.50
2019-05-01T00:43:28.436Z,12.10
2019-05-01T00:45:56.403Z,11.90
2019-05-01T00:48:24.324Z,12.10
2019-05-01T00:50:52.297Z,12.30
2019-05-01T00:53:20.174Z,12.10
2019-05-01T00:56:13.661Z,12.60
2019-05-01T00:58:59.590Z,12.70
2019-05-01T01:01:45.267Z,12.80
2019-05-01T01:04:15.883Z,12.70
2019-05-01T01:06:43.739Z,13.00
2019-05-01T01:09:11.902Z,12.80
2019-05-01T01:11:40.008Z,12.70
2019-05-01T01:14:07.937Z,12.60
2019-05-01T01:16:35.888Z,12.60
2019-05-01T01:19:04.076Z,12.60
2019-05-01T01:21:33.124Z,12.60
2019-05-01T01:24:01.741Z,12.60
2019-05-01T01:26:29.620Z,12.50
2019-05-01T01:28:57.506Z,12.20
2019-05-01T01:31:25.395Z,12.50
2019-05-01T01:33:53.345Z,12.50
2019-05-01T01:36:21.233Z,12.80
2019-05-01T01:38:49.127Z,12.80
2019-05-01T01:41:18.007Z,12.80
2019-05-01T01:44:09.139Z,12.60
2019-05-01T01:46:38.223Z,12.60
2019-05-01T01:49:06.105Z,12.60
2019-05-01T01:51:34.050Z,12.60
2019-05-01T01:54:02.333Z,12.60
2019-05-01T01:56:30.240Z,12.70
2019-05-01T01:58:58.094Z,12.80
2019-05-01T02:01:54.685Z,12.40
2019-05-01T02:04:51.112Z,12.00
2019-05-01T02:07:19.200Z,12.10
2019-05-01T02:09:47.066Z,12.50
2019-05-01T02:12:15.140Z,12.70
2019-05-01T02:14:43.071Z,12.50
2019-05-01T02:17:10.971Z,12.40
2019-05-01T02:19:38.832Z,11.90
2019-05-01T02:22:06.744Z,12.00
2019-05-01T02:24:34.574Z,11.70
2019-05-01T02:27:06.005Z,11.50
2019-05-01T02:29:41.747Z,11.40
2019-05-01T02:32:09.733Z,11.50
2019-05-01T02:34:47.215Z,11.60
2019-05-01T02:37:15.490Z,11.20
2019-05-01T02:39:44.476Z,11.50
2019-05-01T02:42:14.260Z,11.20
2019-05-01T02:44:49.053Z,11.40
2019-05-01T02:47:26.070Z,11.10
2019-05-01T02:50:06.209Z,11.10
2019-05-01T02:52:36.830Z,10.80
2019-05-01T02:55:11.209Z,10.80
2019-05-01T02:57:40.492Z,10.90
2019-05-01T03:00:08.497Z,11.00
2019-05-01T03:02:37.709Z,10.80
2019-05-01T03:05:06.509Z,11.10
2019-05-01T03:07:36.227Z,11.10
2019-05-01T03:10:08.956Z,11.00
2019-05-01T03:12:40.675Z,10.90
2019-05-01T03:15:10.159Z,10.90
2019-05-01T03:17:57.609Z,11.00
2019-05-01T03:20:51.986Z,10.80
2019-05-01T03:23:33.123Z,10.90
2019-05-01T03:26:01.136Z,10.70
2019-05-01T03:28:29.232Z,10.50
2019-05-01T03:30:57.202Z,10.60
2019-05-01T03:33:25.292Z,10.40
2019-05-01T03:35:53.490Z,10.30
2019-05-01T03:38:21.647Z,10.10
2019-05-01T03:40:49.523Z,10.20
2019-05-01T03:43:17.674Z,10.20
2019-05-01T03:45:45.546Z,10.30
2019-05-01T03:48:13.515Z,10.00
2019-05-01T03:50:41.581Z,9.80
2019-05-01T03:53:09.453Z,9.80
2019-05-01T03:55:38.141Z,10.00
2019-05-01T03:58:06.283Z,9.90
2019-05-01T04:00:51.457Z,10.10
2019-05-01T04:03:31.841Z,10.20
2019-05-01T04:05:59.829Z,10.30
2019-05-01T04:08:28.518Z,9.90
2019-05-01T04:10:56.606Z,9.80
2019-05-01T04:13:25.042Z,9.80
2019-05-01T04:15:55.061Z,9.80
2019-05-01T04:18:23.769Z,9.70
2019-05-01T04:20:51.660Z,9.60
2019-05-01T04:23:19.912Z,9.70
2019-05-01T04:25:47.907Z,9.70
2019-05-01T04:28:38.377Z,9.70
2019-05-01T04:31:17.280Z,9.90
2019-05-01T04:33:46.703Z,10.20
2019-05-01T04:36:20.867Z,10.10
2019-05-01T04:38:48.749Z,10.20
2019-05-01T04:41:17.026Z,10.10
2019-05-01T04:43:45.260Z,9.90
2019-05-01T04:46:13.590Z,10.20
2019-05-01T04:48:41.683Z,10.20
2019-05-01T04:51:09.935Z,10.30
2019-05-01T04:53:38.097Z,10.40
2019-05-01T04:56:06.295Z,10.30
2019-05-01T04:58:34.366Z,10.50
2019-05-01T05:01:02.517Z,10.60
2019-05-01T05:03:30.578Z,11.00
2019-05-01T05:05:59.085Z,10.90
2019-05-01T05:08:28.080Z,10.50
2019-05-01T05:10:57.861Z,10.40
2019-05-01T05:13:31.034Z,10.30
2019-05-01T05:16:08.050Z,10.60
2019-05-01T05:18:36.705Z,11.40
2019-05-01T05:21:04.697Z,11.20
2019-05-01T05:23:32.600Z,10.70
2019-05-01T05:26:00.613Z,10.40
2019-05-01T05:28:31.298Z,10.60
2019-05-01T05:31:00.954Z,10.90
2019-05-01T05:33:32.610Z,11.30
2019-05-01T05:36:03.481Z,11.60
2019-05-01T05:38:47.716Z,12.40
2019-05-01T05:41:18.775Z,11.60
2019-05-01T05:43:47.433Z,11.50
2019-05-01T05:46:15.413Z,11.70
2019-05-01T05:48:43.508Z,11.80
2019-05-01T05:51:42.276Z,10.80
2019-05-01T05:54:30.848Z,10.80
2019-05-01T05:57:03.900Z,11.70
2019-05-01T05:59:35.785Z,12.40
2019-05-01T06:02:26.462Z,12.70
2019-05-01T06:05:07.671Z,12.60
2019-05-01T06:08:01.603Z,11.90
2019-05-01T06:10:47.610Z,11.30
2019-05-01T06:13:41.313Z,11.60
2019-05-01T06:16:31.988Z,12.00
2019-05-01T06:19:25.419Z,13.00
2019-05-01T06:22:15.420Z,12.90
2019-05-01T06:24:46.823Z,12.50
2019-05-01T06:27:15.794Z,13.10
2019-05-01T06:29:44.136Z,13.20
2019-05-01T06:32:12.169Z,13.30
2019-05-01T06:34:40.508Z,14.30
2019-05-01T06:37:08.550Z,13.40
2019-05-01T06:39:37.087Z,14.70
2019-05-01T06:42:09.852Z,15.00
2019-05-01T06:44:46.506Z,15.30
2019-05-01T06:47:38.154Z,14.90
2019-05-01T06:50:25.801Z,13.90
2019-05-01T06:52:54.258Z,14.10
2019-05-01T06:55:26.568Z,14.90
2019-05-01T06:57:52.422Z,14.10
2019-05-01T07:00:20.739Z,14.10
2019-05-01T07:02:50.799Z,14.50
2019-05-01T07:05:20.764Z,14.40
2019-05-01T07:07:58.606Z,15.20
2019-05-01T07:10:31.430Z,16.20
2019-05-01T07:12:59.794Z,16.20
2019-05-01T07:15:28.549Z,17.00
2019-05-01T07:17:57.069Z,16.80
2019-05-01T07:20:51.585Z,16.90
2019-05-01T07:23:18.688Z,16.50
2019-05-01T07:25:49.358Z,16.90
2019-05-01T07:28:17.240Z,16.90
2019-05-01T07:31:07.519Z,17.30
2019-05-01T07:33:35.868Z,17.60
2019-05-01T07:36:07.099Z,17.40
2019-05-01T07:38:38.322Z,17.10
2019-05-01T07:41:06.272Z,16.40
2019-05-01T07:43:59.769Z,17.00
2019-05-01T07:46:53.471Z,17.70
2019-05-01T07:49:42.779Z,17.30
2019-05-01T07:52:12.498Z,16.20
2019-05-01T07:54:42.375Z,17.10
2019-05-01T07:57:10.810Z,18.10
2019-05-01T07:59:38.848Z,17.90
2019-05-01T08:02:11.215Z,18.00
2019-05-01T08:04:39.133Z,18.50
2019-05-01T08:07:07.086Z,18.90
2019-05-01T08:09:35.054Z,17.90
2019-05-01T08:12:03.333Z,17.70
2019-05-01T08:14:31.375Z,17.60
2019-05-01T08:16:59.379Z,18.30
2019-05-01T08:19:34.703Z,19.30
2019-05-01T08:22:14.814Z,18.60
2019-05-01T08:24:42.722Z,17.80
2019-05-01T08:27:20.275Z,17.50
2019-05-01T08:29:55.556Z,18.90
2019-05-01T08:32:52.080Z,19.20
2019-05-01T08:35:22.642Z,20.00
2019-05-01T08:37:53.845Z,20.40
2019-05-01T08:40:21.681Z,20.10
2019-05-01T08:42:49.735Z,20.30
2019-05-01T08:45:40.792Z,20.50
2019-05-01T08:48:16.420Z,20.90
2019-05-01T08:50:44.484Z,20.70
2019-05-01T08:53:12.987Z,20.20
2019-05-01T08:55:45.031Z,20.40
2019-05-01T08:58:13.982Z,19.60
2019-05-01T09:00:41.399Z,20.50
2019-05-01T09:03:13.690Z,20.60
2019-05-01T09:05:39.344Z,20.50
2019-05-01T09:08:07.461Z,20.80
2019-05-01T09:10:35.510Z,21.20
2019-05-01T09:13:03.523Z,21.20
2019-05-01T09:15:31.439Z,21.30
2019-05-01T09:17:59.522Z,21.30
2019-05-01T09:20:28.011Z,21.10
2019-05-01T09:22:56.009Z,21.50
2019-05-01T09:25:35.317Z,21.80
2019-05-01T09:28:09.082Z,21.40
2019-05-01T09:30:40.994Z,20.70
2019-05-01T09:33:08.910Z,20.70
2019-05-01T09:35:40.147Z,21.40
2019-05-01T09:38:07.815Z,21.70
2019-05-01T09:40:35.799Z,22.40
2019-05-01T09:43:03.929Z,22.60
2019-05-01T09:45:31.874Z,23.10
2019-05-01T09:47:59.877Z,22.80
2019-05-01T09:50:30.508Z,22.90
2019-05-01T09:53:19.266Z,21.00
2019-05-01T09:55:50.485Z,22.20
2019-05-01T09:58:19.584Z,21.40
2019-05-01T10:00:48.832Z,22.10
2019-05-01T10:03:18.361Z,21.50
2019-05-01T10:05:46.322Z,22.00
2019-05-01T10:08:14.354Z,21.90
2019-05-01T10:10:42.483Z,21.90
2019-05-01T10:13:10.408Z,22.80
2019-05-01T10:15:38.353Z,22.60
2019-05-01T10:18:06.434Z,21.70
2019-05-01T10:20:34.505Z,21.80
2019-05-01T10:23:02.677Z,22.40
2019-05-01T10:25:34.228Z,22.10
2019-05-01T10:28:11.741Z,22.20
2019-05-01T10:30:45.464Z,22.70
2019-05-01T10:33:16.847Z,23.40
2019-05-01T10:36:20.687Z,23.90
2019-05-01T10:38:48.945Z,24.00
2019-05-01T10:41:18.673Z,23.70
2019-05-01T10:43:46.687Z,23.70
2019-05-01T10:46:15.267Z,24.20
2019-05-01T10:48:43.288Z,24.70
2019-05-01T10:51:11.274Z,24.00
2019-05-01T10:53:39.386Z,24.20
2019-05-01T10:56:07.356Z,24.10
2019-05-01T10:58:35.565Z,24.60
2019-05-01T11:01:13.533Z,24.90
2019-05-01T11:03:42.813Z,24.20
2019-05-01T11:06:10.910Z,23.90
2019-05-01T11:08:38.867Z,25.10
2019-05-01T11:11:06.915Z,23.90
2019-05-01T11:13:34.920Z,25.00
2019-05-01T11:16:04.512Z,24.90
2019-05-01T11:18:32.494Z,24.50
2019-05-01T11:21:00.549Z,24.90
2019-05-01T11:23:28.682Z,24.80
2019-05-01T11:25:57.608Z,25.40
2019-05-01T11:28:26.261Z,24.60
2019-05-01T11:30:54.328Z,25.00
2019-05-01T11:33:33.961Z,25.80
2019-05-01T11:36:17.675Z,25.90
2019-05-01T11:38:55.443Z,26.00
2019-05-01T11:41:38.271Z,26.60
2019-05-01T11:44:06.415Z,25.10
2019-05-01T11:46:34.458Z,24.20
2019-05-01T11:49:02.541Z,24.60
2019-05-01T11:51:30.637Z,25.70
2019-05-01T11:54:02.187Z,23.50
2019-05-01T11:56:29.531Z,23.50
2019-05-01T11:58:57.490Z,24.20
2019-05-01T12:01:26.448Z,24.90
2019-05-01T12:03:54.415Z,24.60
2019-05-01T12:06:23.327Z,24.90
2019-05-01T12:08:51.523Z,25.70
2019-05-01T12:11:21.448Z,26.00
2019-05-01T12:13:49.398Z,26.90
2019-05-01T12:16:23.730Z,27.20
2019-05-01T12:18:51.880Z,26.50
2019-05-01T12:21:19.870Z,26.00
2019-05-01T12:23:47.905Z,24.30
2019-05-01T12:26:16.799Z,25.20
2019-05-01T12:28:44.757Z,25.80
2019-05-01T12:31:12.833Z,26.00
2019-05-01T12:33:40.863Z,24.60
2019-05-01T12:36:09.136Z,25.10
2019-05-01T12:38:37.198Z,25.40
2019-05-01T12:41:27.531Z,25.30
2019-05-01T12:43:55.491Z,24.90
2019-05-01T12:46:58.047Z,24.20
2019-05-01T12:49:26.065Z,25.30
2019-05-01T12:52:09.604Z,25.40
2019-05-01T12:54:46.453Z,25.70
2019-05-01T12:57:15.051Z,25.60
2019-05-01T12:59:43.052Z,25.60
2019-05-01T13:02:10.980Z,24.80
2019-05-01T13:04:38.956Z,23.80
2019-05-01T13:07:07.609Z,24.60
2019-05-01T13:09:35.642Z,25.40
2019-05-01T13:12:03.770Z,26.20
2019-05-01T13:14:31.881Z,25.20
2019-05-01T13:16:59.944Z,24.80
2019-05-01T13:19:28.061Z,25.50
2019-05-01T13:21:56.041Z,26.60
2019-05-01T13:24:23.997Z,26.50
2019-05-01T13:27:04.568Z,26.20
2019-05-01T13:29:40.110Z,26.50
2019-05-01T13:32:27.674Z,26.90
2019-05-01T13:34:55.818Z,27.60
2019-05-01T13:37:23.793Z,25.80
2019-05-01T13:39:51.803Z,26.60
2019-05-01T13:42:19.733Z,26.90
2019-05-01T13:44:47.816Z,27.90
2019-05-01T13:47:16.112Z,28.00
2019-05-01T13:49:46.334Z,27.40
2019-05-01T13:52:14.338Z,27.50
2019-05-01T13:54:42.454Z,27.10
2019-05-01T13:57:10.442Z,26.80
2019-05-01T13:59:38.764Z,24.50
2019-05-01T14:02:08.012Z,24.50
2019-05-01T14:04:36.312Z,26.20
2019-05-01T14:07:15.734Z,28.30
2019-05-01T14:09:34.902Z,29.20
2019-05-01T14:12:03.199Z,29.50
2019-05-01T14:14:31.120Z,28.70
2019-05-01T14:16:59.127Z,27.80
2019-05-01T14:19:28.302Z,26.50
2019-05-01T14:22:18.940Z,26.20
2019-05-01T14:24:56.600Z,28.10
2019-05-01T14:27:24.613Z,29.40
2019-05-01T14:29:52.686Z,27.50
2019-05-01T14:32:20.658Z,28.60
2019-05-01T14:34:48.621Z,29.00
2019-05-01T14:37:28.580Z,30.70
2019-05-01T14:39:46.597Z,31.70
2019-05-01T14:42:14.535Z,31.10
2019-05-01T14:44:42.610Z,32.60
2019-05-01T14:47:10.540Z,32.30
2019-05-01T14:49:38.714Z,30.60
2019-05-01T14:52:06.636Z,31.50
2019-05-01T14:54:34.575Z,29.80
2019-05-01T14:57:02.593Z,31.60
2019-05-01T14:59:30.575Z,31.70
2019-05-01T15:01:58.579Z,30.60
2019-05-01T15:04:26.512Z,30.70
2019-05-01T15:06:56.017Z,31.60
2019-05-01T15:09:24.067Z,32.00
2019-05-01T15:11:51.926Z,30.80
2019-05-01T15:14:35.490Z,30.80
2019-05-01T15:17:29.232Z,29.90
2019-05-01T15:20:02.492Z,30.80
2019-05-01T15:22:31.430Z,30.40
2019-05-01T15:24:59.361Z,30.60
2019-05-01T15:27:27.284Z,30.60
2019-05-01T15:29:55.358Z,31.40
2019-05-01T15:32:23.398Z,31.20
2019-05-01T15:34:51.339Z,30.00
2019-05-01T15:37:19.270Z,29.70
2019-05-01T15:39:53.939Z,27.80
2019-05-01T15:42:29.400Z,29.20
2019-05-01T15:44:57.516Z,29.60
2019-05-01T15:47:25.595Z,30.50
2019-05-01T15:49:53.905Z,28.80
2019-05-01T15:52:21.840Z,27.30
2019-05-01T15:54:50.503Z,26.50
2019-05-01T15:57:18.561Z,26.50
2019-05-01T15:59:46.562Z,25.20
2019-05-01T16:02:14.541Z,25.10
2019-05-01T16:04:42.718Z,24.10
2019-05-01T16:07:10.826Z,24.90
2019-05-01T16:09:38.961Z,24.80
2019-05-01T16:12:14.443Z,24.10
2019-05-01T16:14:47.678Z,24.60
2019-05-01T16:17:15.661Z,24.80
2019-05-01T16:19:43.736Z,24.70
2019-05-01T16:22:11.789Z,24.90
2019-05-01T16:24:39.798Z,24.70
2019-05-01T16:27:07.808Z,25.10
2019-05-01T16:29:35.800Z,24.80
2019-05-01T16:32:04.475Z,25.20
2019-05-01T16:34:32.613Z,25.30
2019-05-01T16:37:00.643Z,25.10
2019-05-01T16:39:51.232Z,25.00
2019-05-01T16:42:33.201Z,25.20
2019-05-01T16:45:01.383Z,24.50
2019-05-01T16:47:29.443Z,25.10
2019-05-01T16:49:57.492Z,24.10
2019-05-01T16:52:28.901Z,23.30
2019-05-01T16:54:59.510Z,23.10
2019-05-01T16:57:27.085Z,24.10
2019-05-01T16:59:55.058Z,23.70
2019-05-01T17:02:38.446Z,23.60
2019-05-01T17:05:35.597Z,23.60
2019-05-01T17:08:14.307Z,23.50
2019-05-01T17:10:44.927Z,23.70
2019-05-01T17:13:13.029Z,23.80
2019-05-01T17:15:43.381Z,23.60
2019-05-01T17:18:11.562Z,23.70
2019-05-01T17:20:39.657Z,23.80
2019-05-01T17:23:07.794Z,24.00
2019-05-01T17:25:36.348Z,24.10
2019-05-01T17:28:08.386Z,24.40
2019-05-01T17:30:49.816Z,24.30
2019-05-01T17:33:20.661Z,24.40
2019-05-01T17:35:47.810Z,24.50
2019-05-01T17:38:15.919Z,24.50
2019-05-01T17:40:47.477Z,24.30
2019-05-01T17:43:15.628Z,23.90
2019-05-01T17:45:43.700Z,23.60
2019-05-01T17:48:11.817Z,23.70
2019-05-01T17:50:40.875Z,23.00
2019-05-01T17:53:08.943Z,23.40
2019-05-01T17:55:37.113Z,23.20
2019-05-01T17:58:05.780Z,23.40
2019-05-01T18:00:59.300Z,23.00
2019-05-01T18:03:53.252Z,23.00
2019-05-01T18:06:24.815Z,22.50
2019-05-01T18:09:02.972Z,22.70
2019-05-01T18:11:22.935Z,22.00
2019-05-01T18:13:51.053Z,21.30
2019-05-01T18:16:19.292Z,21.40
2019-05-01T18:18:47.440Z,21.30
2019-05-01T18:21:15.817Z,21.80
2019-05-01T18:24:23.163Z,21.80
2019-05-01T18:27:30.149Z,21.60
2019-05-01T18:30:02.049Z,21.40
2019-05-01T18:32:41.679Z,21.20
2019-05-01T18:35:14.331Z,21.10
2019-05-01T18:37:52.960Z,20.80
2019-05-01T18:40:25.538Z,21.00
2019-05-01T18:42:53.828Z,20.90
2019-05-01T18:45:57.973Z,20.60
2019-05-01T18:48:26.152Z,20.50
2019-05-01T18:50:56.313Z,20.50
2019-05-01T18:53:24.771Z,20.50
2019-05-01T18:55:52.788Z,20.40
2019-05-01T18:58:21.032Z,20.30
2019-05-01T19:00:49.084Z,20.00
2019-05-01T19:03:17.317Z,19.20
2019-05-01T19:05:46.937Z,19.40
2019-05-01T19:08:16.008Z,19.30
2019-05-01T19:10:46.278Z,19.40
2019-05-01T19:13:14.891Z,19.30
2019-05-01T19:15:43.120Z,18.90
2019-05-01T19:18:12.338Z,18.90
2019-05-01T19:20:40.400Z,18.80
2019-05-01T19:23:08.778Z,18.60
2019-05-01T19:25:36.950Z,18.70
2019-05-01T19:28:07.098Z,18.30
2019-05-01T19:30:35.731Z,18.40
2019-05-01T19:33:04.094Z,18.20
2019-05-01T19:35:34.244Z,18.20
2019-05-01T19:38:03.529Z,17.80
2019-05-01T19:40:32.784Z,17.30
2019-05-01T19:43:01.341Z,17.70
2019-05-01T19:45:29.872Z,17.80
2019-05-01T19:47:58.347Z,17.50
2019-05-01T19:50:26.656Z,17.70
2019-05-01T19:52:54.807Z,17.70
2019-05-01T19:55:23.003Z,17.60
2019-05-01T19:57:51.297Z,17.50
2019-05-01T20:01:04.270Z,17.20
2019-05-01T20:03:36.149Z,17.00
2019-05-01T20:06:05.322Z,17.20
2019-05-01T20:08:32.917Z,17.30
2019-05-01T20:11:01.178Z,17.30
2019-05-01T20:13:29.444Z,17.30
2019-05-01T20:15:57.817Z,17.20
2019-05-01T20:18:25.954Z,17.30
2019-05-01T20:20:55.861Z,17.30
2019-05-01T20:23:26.043Z,17.20
2019-05-01T20:25:56.165Z,17.10
2019-05-01T20:28:24.378Z,17.10
2019-05-01T20:30:52.650Z,17.30
2019-05-01T20:33:21.039Z,17.20
2019-05-01T20:35:51.631Z,17.20
2019-05-01T20:38:21.298Z,17.00
2019-05-01T20:40:49.540Z,17.20
2019-05-01T20:43:17.686Z,17.10
2019-05-01T20:45:49.389Z,17.10
2019-05-01T20:48:18.590Z,17.10
2019-05-01T20:50:46.394Z,16.90
2019-05-01T20:53:14.397Z,16.60
2019-05-01T20:55:49.982Z,16.70
2019-05-01T20:58:19.489Z,16.20
2019-05-01T21:00:53.246Z,15.70
2019-05-01T21:03:21.665Z,15.60
2019-05-01T21:06:02.856Z,15.60
2019-05-01T21:08:51.513Z,15.80
2019-05-01T21:11:24.233Z,15.60
2019-05-01T21:13:56.601Z,15.60
2019-05-01T21:16:22.394Z,15.40
2019-05-01T21:18:50.576Z,15.40
2019-05-01T21:21:18.594Z,15.80
2019-05-01T21:23:48.110Z,15.70
2019-05-01T21:26:16.637Z,15.50
2019-05-01T21:28:45.034Z,14.70
2019-05-01T21:31:13.811Z,15.20
2019-05-01T21:33:46.310Z,15.50
2019-05-01T21:36:11.887Z,16.00
2019-05-01T21:38:39.847Z,15.80
2019-05-01T21:41:07.919Z,16.30
2019-05-01T21:43:37.151Z,16.40
2019-05-01T21:46:05.259Z,16.50
2019-05-01T21:48:33.522Z,16.40
2019-05-01T21:51:03.450Z,16.10
2019-05-01T21:53:32.807Z,16.30
2019-05-01T21:56:02.052Z,16.10
2019-05-01T21:58:33.392Z,16.20
2019-05-01T22:01:01.391Z,16.20
2019-05-01T22:03:29.737Z,16.00
2019-05-01T22:05:57.849Z,15.90
2019-05-01T22:08:26.340Z,15.60
2019-05-01T22:10:57.516Z,15.70
2019-05-01T22:13:25.469Z,15.70
2019-05-01T22:16:07.640Z,15.50
2019-05-01T22:18:58.052Z,15.20
2019-05-01T22:21:35.957Z,15.10
2019-05-01T22:24:21.715Z,14.90
2019-05-01T22:27:07.011Z,14.40
2019-05-01T22:29:39.300Z,14.60
2019-05-01T22:32:32.252Z,14.60
2019-05-01T22:35:18.127Z,14.60
2019-05-01T22:37:46.069Z,14.50
2019-05-01T22:40:17.255Z,14.50
2019-05-01T22:42:45.169Z,14.80
2019-05-01T22:45:20.852Z,14.90
2019-05-01T22:47:50.863Z,14.80
2019-05-01T22:50:18.736Z,14.70
2019-05-01T22:52:46.700Z,14.70
2019-05-01T22:55:15.398Z,14.40
2019-05-01T22:57:43.335Z,14.40
2019-05-01T23:00:32.149Z,14.70
2019-05-01T23:03:05.328Z,14.60
2019-05-01T23:05:33.519Z,14.80
2019-05-01T23:08:01.480Z,14.00
2019-05-01T23:10:29.519Z,14.10
2019-05-01T23:12:57.686Z,14.20
2019-05-01T23:15:27.943Z,14.40
2019-05-01T23:17:56.100Z,14.00
2019-05-01T23:20:24.171Z,14.20
2019-05-01T23:22:52.171Z,14.30
2019-05-01T23:25:20.109Z,14.50
2019-05-01T23:27:48.075Z,14.10
2019-05-01T23:30:17.959Z,14.30
2019-05-01T23:32:46.065Z,14.00
2019-05-01T23:35:15.082Z,14.20
2019-05-01T23:37:43.051Z,14.30
2019-05-01T23:40:15.581Z,14.30
2019-05-01T23:42:52.373Z,14.30
2019-05-01T23:45:13.905Z,14.40
2019-05-01T23:47:43.805Z,14.50
2019-05-01T23:50:11.865Z,14.50
2019-05-01T23:52:39.912Z,14.60
2019-05-01T23:55:08.041Z,14.60
2019-05-01T23:57:35.911Z,14.60
